createdAt,value
2022-09-20T00:01:23.109Z,6.00
2022-09-20T00:03:53.639Z,8.13
2022-09-20T00:06:23.202Z,9.00
2022-09-20T00:08:50.622Z,4.97
2022-09-20T00:11:23.250Z,7.47
2022-09-20T00:13:53.424Z,5.00
2022-09-20T00:16:41.417Z,5.88
2022-09-20T00:19:10.811Z,5.68
2022-09-20T00:21:37.944Z,4.70
2022-09-20T00:24:06.095Z,8.23
2022-09-20T00:26:33.403Z,7.05
2022-09-20T00:32:20.100Z,5.63
2022-09-20T00:35:05.408Z,5.47
2022-09-20T00:37:32.381Z,6.65
2022-09-20T00:39:59.266Z,6.15
2022-09-20T00:42:31.119Z,7.05
2022-09-20T00:45:03.566Z,6.68
2022-09-20T00:47:44.732Z,6.47
2022-09-20T00:50:30.295Z,9.40
2022-09-20T00:53:05.977Z,4.47
2022-09-20T00:55:35.087Z,5.68
2022-09-20T00:58:02.301Z,5.18
2022-09-20T01:00:29.648Z,7.28
2022-09-20T01:03:03.508Z,5.18
2022-09-20T01:07:57.553Z,6.63
2022-09-20T01:10:24.559Z,7.40
2022-09-20T01:12:53.722Z,6.65
2022-09-20T01:15:23.313Z,3.90
2022-09-20T01:17:53.700Z,6.72
2022-09-20T01:20:38.950Z,5.40
2022-09-20T01:23:24.483Z,7.88
2022-09-20T01:26:10.204Z,3.92
2022-09-20T01:28:39.110Z,7.90
2022-09-20T01:31:33.485Z,5.72
2022-09-20T01:34:21.527Z,5.80
2022-09-20T01:37:02.669Z,6.47
2022-09-20T01:40:02.877Z,5.45
2022-09-20T01:42:36.592Z,3.78
2022-09-20T01:45:09.855Z,7.35
2022-09-20T01:47:48.795Z,7.43
2022-09-20T01:50:30.261Z,6.40
2022-09-20T01:53:21.485Z,5.10
2022-09-20T01:56:07.056Z,6.32
2022-09-20T01:59:22.132Z,6.57
2022-09-20T02:01:53.891Z,7.55
2022-09-20T02:04:42.696Z,4.78
2022-09-20T02:07:28.445Z,4.68
2022-09-20T02:10:32.504Z,4.13
2022-09-20T02:13:04.596Z,5.77
2022-09-20T02:15:59.123Z,4.78
2022-09-20T02:21:05.612Z,4.90
2022-09-20T02:23:41.952Z,4.10
2022-09-20T02:26:28.677Z,5.18
2022-09-20T02:29:10.360Z,5.95
2022-09-20T02:31:57.526Z,5.15
2022-09-20T02:34:50.106Z,5.55
2022-09-20T02:37:51.014Z,4.10
2022-09-20T02:41:00.784Z,7.00
2022-09-20T02:43:44.853Z,4.55
2022-09-20T02:46:42.060Z,7.35
2022-09-20T02:49:50.739Z,5.30
2022-09-20T02:52:49.159Z,4.95
2022-09-20T02:55:42.158Z,6.03
2022-09-20T02:58:20.822Z,5.43
2022-09-20T03:01:07.644Z,4.03
2022-09-20T03:03:54.694Z,4.82
2022-09-20T03:06:43.759Z,4.43
2022-09-20T03:09:34.039Z,5.07
2022-09-20T03:12:22.457Z,7.22
2022-09-20T03:15:26.827Z,7.55
2022-09-20T03:18:16.139Z,4.47
2022-09-20T03:20:45.807Z,5.82
2022-09-20T03:23:34.043Z,7.05
2022-09-20T03:26:27.952Z,4.35
2022-09-20T03:29:08.743Z,7.07
2022-09-20T03:32:04.102Z,4.60
2022-09-20T03:34:37.058Z,5.88
2022-09-20T03:37:17.115Z,4.70
2022-09-20T03:40:17.757Z,6.28
2022-09-20T03:42:51.519Z,9.77
2022-09-20T03:45:54.264Z,4.40
2022-09-20T03:48:46.932Z,4.75
2022-09-20T03:51:14.087Z,4.72
2022-09-20T03:53:51.191Z,6.10
2022-09-20T03:56:29.456Z,5.20
2022-09-20T03:59:29.796Z,7.68
2022-09-20T04:02:33.345Z,5.30
2022-09-20T04:05:09.836Z,4.82
2022-09-20T04:07:59.768Z,5.13
2022-09-20T04:10:53.225Z,6.00
2022-09-20T04:13:44.520Z,4.88
2022-09-20T04:16:37.865Z,6.47
2022-09-20T04:19:21.809Z,6.32
2022-09-20T04:22:02.296Z,6.05
2022-09-20T04:24:43.076Z,6.00
2022-09-20T04:27:20.420Z,8.07
2022-09-20T04:29:51.725Z,9.55
2022-09-20T04:32:42.406Z,6.70
2022-09-20T04:35:54.476Z,7.70
2022-09-20T04:38:22.114Z,4.13
2022-09-20T04:40:57.840Z,6.13
2022-09-20T04:43:36.513Z,5.72
2022-09-20T04:46:29.172Z,6.88
2022-09-20T04:49:15.440Z,5.72
2022-09-20T04:52:11.477Z,5.20
2022-09-20T04:54:59.992Z,6.13
2022-09-20T04:58:00.571Z,6.00
2022-09-20T05:00:57.825Z,5.47
2022-09-20T05:03:27.488Z,6.10
2022-09-20T05:06:16.069Z,6.20
2022-09-20T05:09:08.247Z,5.43
2022-09-20T05:12:05.770Z,7.47
2022-09-20T05:14:53.455Z,6.85
2022-09-20T05:17:34.500Z,4.82
2022-09-20T05:20:13.470Z,5.97
2022-09-20T05:23:07.948Z,8.70
2022-09-20T05:26:03.480Z,6.93
2022-09-20T05:29:03.943Z,7.18
2022-09-20T05:31:51.765Z,5.88
2022-09-20T05:34:42.366Z,8.40
2022-09-20T05:37:21.738Z,6.85
2022-09-20T05:40:22.679Z,6.63
2022-09-20T05:42:55.764Z,9.10
2022-09-20T05:46:04.714Z,8.33
2022-09-20T05:48:47.967Z,7.70
2022-09-20T05:51:45.791Z,5.15
2022-09-20T05:54:33.827Z,5.00
2022-09-20T05:57:25.125Z,5.07
2022-09-20T06:00:07.074Z,8.15
2022-09-20T06:02:48.462Z,6.05
2022-09-20T06:05:29.541Z,6.55
2022-09-20T06:08:20.643Z,6.88
2022-09-20T06:11:01.937Z,8.48
2022-09-20T06:14:01.136Z,6.38
2022-09-20T06:17:04.709Z,6.72
2022-09-20T06:19:37.357Z,7.05
2022-09-20T06:22:28.474Z,9.73
2022-09-20T06:25:07.510Z,6.32
2022-09-20T06:27:53.869Z,7.53
2022-09-20T06:30:31.484Z,6.72
2022-09-20T06:33:06.383Z,7.07
2022-09-20T06:36:30.417Z,6.45
2022-09-20T06:39:34.952Z,5.47
2022-09-20T06:42:02.263Z,6.28
2022-09-20T06:44:29.477Z,6.57
2022-09-20T06:46:56.424Z,6.32
2022-09-20T06:49:24.307Z,5.57
2022-09-20T06:51:52.539Z,7.95
2022-09-20T06:54:21.933Z,8.93
2022-09-20T06:56:50.608Z,6.40
2022-09-20T06:59:17.509Z,8.70
2022-09-20T07:01:45.120Z,5.95
2022-09-20T07:04:12.107Z,10.82
2022-09-20T07:06:39.162Z,7.35
2022-09-20T07:09:06.584Z,8.23
2022-09-20T07:11:34.210Z,8.82
2022-09-20T07:14:01.756Z,7.60
2022-09-20T07:16:29.043Z,8.70
2022-09-20T07:18:56.901Z,7.72
2022-09-20T07:21:24.357Z,10.90
2022-09-20T07:23:51.626Z,11.85
2022-09-20T07:26:25.851Z,10.60
2022-09-20T07:28:53.744Z,13.20
2022-09-20T07:31:22.956Z,9.85
2022-09-20T07:33:50.058Z,11.15
2022-09-20T07:36:17.288Z,8.18
2022-09-20T07:38:48.652Z,13.35
2022-09-20T07:41:15.604Z,12.35
2022-09-20T07:43:42.514Z,14.77
2022-09-20T07:46:12.134Z,11.27
2022-09-20T07:48:39.647Z,10.32
2022-09-20T07:51:12.811Z,10.15
2022-09-20T07:53:40.813Z,13.10
2022-09-20T07:56:15.993Z,10.55
2022-09-20T07:58:48.671Z,9.82
2022-09-20T08:01:19.958Z,13.32
2022-09-20T08:03:47.127Z,10.40
2022-09-20T08:06:18.512Z,11.65
2022-09-20T08:08:45.529Z,13.20
2022-09-20T08:11:15.515Z,7.78
2022-09-20T08:16:42.655Z,10.45
2022-09-20T08:19:23.350Z,10.55
2022-09-20T08:21:52.649Z,8.73
2022-09-20T08:24:19.689Z,9.35
2022-09-20T08:26:46.810Z,7.53
2022-09-20T08:29:15.347Z,6.38
2022-09-20T08:31:42.834Z,8.38
2022-09-20T08:34:12.756Z,5.43
2022-09-20T08:36:42.456Z,10.82
2022-09-20T08:41:58.975Z,8.05
2022-09-20T08:44:58.565Z,4.75
2022-09-20T08:47:29.794Z,4.88
2022-09-20T08:49:57.947Z,7.45
2022-09-20T08:52:37.654Z,7.53
2022-09-20T08:55:18.009Z,5.70
2022-09-20T08:57:49.299Z,7.82
2022-09-20T09:00:22.448Z,5.22
2022-09-20T09:02:54.199Z,6.55
2022-09-20T09:05:44.330Z,4.63
2022-09-20T09:08:16.651Z,5.88
2022-09-20T09:10:53.149Z,8.63
2022-09-20T09:13:42.452Z,6.50
2022-09-20T09:16:22.646Z,5.10
2022-09-20T09:18:52.187Z,6.38
2022-09-20T09:21:29.026Z,7.90
2022-09-20T09:24:09.469Z,6.35
2022-09-20T09:26:43.357Z,6.82
2022-09-20T09:31:51.845Z,6.30
2022-09-20T09:34:33.501Z,6.00
2022-09-20T09:37:00.521Z,5.47
2022-09-20T09:39:38.188Z,4.43
2022-09-20T09:42:28.834Z,6.25
2022-09-20T09:45:24.140Z,4.72
2022-09-20T09:47:51.061Z,3.38
2022-09-20T09:50:34.768Z,5.70
2022-09-20T09:53:11.487Z,6.18
2022-09-20T09:56:14.258Z,4.72
2022-09-20T09:59:21.746Z,3.67
2022-09-20T10:02:20.417Z,4.38
2022-09-20T10:04:59.499Z,3.72
2022-09-20T10:07:38.191Z,4.07
2022-09-20T10:10:21.193Z,3.92
2022-09-20T10:12:52.831Z,4.97
2022-09-20T10:15:30.929Z,4.50
2022-09-20T10:18:42.641Z,4.55
2022-09-20T10:21:23.189Z,2.47
2022-09-20T10:24:22.028Z,5.10
2022-09-20T10:26:51.819Z,7.10
2022-09-20T10:29:43.197Z,7.32
2022-09-20T10:32:33.061Z,5.15
2022-09-20T10:35:27.735Z,5.45
2022-09-20T10:38:14.685Z,3.33
2022-09-20T10:41:06.062Z,2.78
2022-09-20T10:44:09.691Z,4.20
2022-09-20T10:47:01.030Z,4.00
2022-09-20T10:49:34.787Z,5.15
2022-09-20T10:52:36.235Z,4.38
2022-09-20T10:55:41.290Z,3.10
2022-09-20T10:58:43.798Z,5.25
2022-09-20T11:01:49.587Z,4.63
2022-09-20T11:04:35.254Z,3.47
2022-09-20T11:07:32.776Z,3.08
2022-09-20T11:10:15.048Z,6.78
2022-09-20T11:12:49.121Z,3.40
2022-09-20T11:15:38.603Z,4.18
2022-09-20T11:18:13.892Z,3.72
2022-09-20T11:20:47.381Z,3.55
2022-09-20T11:23:21.091Z,5.07
2022-09-20T11:26:21.244Z,3.70
2022-09-20T11:28:56.027Z,3.38
2022-09-20T11:31:36.360Z,2.95
2022-09-20T11:34:32.887Z,4.95
2022-09-20T11:37:03.267Z,4.88
2022-09-20T11:39:54.621Z,4.05
2022-09-20T11:42:26.513Z,5.45
2022-09-20T11:44:54.734Z,3.08
2022-09-20T11:47:53.312Z,3.20
2022-09-20T11:50:45.173Z,4.03
2022-09-20T11:53:32.165Z,3.53
2022-09-20T11:56:18.722Z,4.03
2022-09-20T11:58:59.868Z,5.25
2022-09-20T12:01:35.663Z,3.33
2022-09-20T12:07:10.336Z,3.47
2022-09-20T12:09:42.526Z,3.58
2022-09-20T12:12:30.635Z,4.80
2022-09-20T12:15:00.428Z,4.30
2022-09-20T12:17:46.109Z,4.00
2022-09-20T12:20:44.911Z,3.83
2022-09-20T12:23:42.995Z,4.35
2022-09-20T12:26:37.029Z,4.78
2022-09-20T12:29:26.717Z,4.85
2022-09-20T12:31:57.115Z,3.17
2022-09-20T12:34:26.790Z,3.55
2022-09-20T12:36:53.634Z,4.85
2022-09-20T12:39:29.909Z,4.95
2022-09-20T12:42:11.476Z,4.40
2022-09-20T12:44:49.228Z,4.82
2022-09-20T12:47:23.437Z,2.88
2022-09-20T12:50:11.337Z,5.18
2022-09-20T12:53:03.870Z,3.72
2022-09-20T12:55:43.720Z,4.72
2022-09-20T12:58:14.417Z,3.92
2022-09-20T13:00:47.547Z,2.85
2022-09-20T13:03:34.888Z,3.45
2022-09-20T13:06:14.822Z,5.47
2022-09-20T13:08:49.706Z,2.47
2022-09-20T13:11:52.537Z,6.20
2022-09-20T13:14:31.421Z,4.75
2022-09-20T13:17:12.291Z,3.47
2022-09-20T13:19:44.351Z,4.35
2022-09-20T13:22:34.609Z,3.78
2022-09-20T13:25:05.637Z,2.00
2022-09-20T13:27:39.660Z,2.65
2022-09-20T13:30:22.095Z,2.85
2022-09-20T13:32:51.543Z,2.33
2022-09-20T13:35:33.044Z,4.43
2022-09-20T13:38:11.493Z,3.70
2022-09-20T13:40:43.726Z,4.45
2022-09-20T13:43:32.629Z,3.90
2022-09-20T13:46:07.486Z,2.88
2022-09-20T13:48:34.993Z,4.63
2022-09-20T13:51:02.457Z,11.10
2022-09-20T13:53:41.400Z,5.65
2022-09-20T13:56:30.032Z,3.33
2022-09-20T13:59:00.945Z,3.75
2022-09-20T14:01:35.788Z,5.03
2022-09-20T14:04:15.193Z,5.65
2022-09-20T14:06:42.798Z,2.53
2022-09-20T14:09:28.769Z,4.40
2022-09-20T14:11:58.616Z,3.03
2022-09-20T14:14:26.693Z,4.72
2022-09-20T14:16:56.447Z,8.10
2022-09-20T14:19:32.047Z,4.50
2022-09-20T14:22:06.273Z,6.63
2022-09-20T14:24:35.728Z,3.42
2022-09-20T14:27:19.121Z,6.38
2022-09-20T14:29:51.044Z,5.10
2022-09-20T14:32:24.752Z,3.35
